Time;durP1;ratioP1;P1;durP2;ratioP2;P2;SDS_P1;SDS_P2;PMS_P1;PMS_P2;Temp;Humidity;BMP_temperature;BMP_pressure;BME280_temperature;BME280_humidity;BME280_pressure;Samples;Min_cycle;Max_cycle;Signal;HPM_P1;HPM_P2
2022/02/07 00:01:39;;;;;;;39.40;14.38;;;;;;;;;;10532238;28;20028;-76
2022/02/07 00:06:40;;;;;;;26.90;15.48;;;;;;;;;;10530940;28;20123;-76
2022/02/07 00:11:40;;;;;;;29.57;13.57;;;;;;;;;;10530557;28;20047;-79
2022/02/07 00:16:42;;;;;;;25.83;13.63;;;;;;;;;;10530471;28;20054;-75
2022/02/07 00:21:42;;;;;;;27.65;13.13;;;;;;;;;;10530234;28;20024;-75
2022/02/07 00:26:42;;;;;;;26.03;12.60;;;;;;;;;;10531083;28;20020;-74
2022/02/07 00:31:43;;;;;;;27.80;13.73;;;;;;;;;;10529959;28;20265;-79
2022/02/07 00:36:43;;;;;;;24.17;14.02;;;;;;;;;;10529878;28;20112;-73
2022/02/07 00:42:00;;;;;;;24.17;13.13;;;;;;;;;;10529789;28;20458;-75
2022/02/07 00:47:07;;;;;;;25.05;12.38;;;;;;;;;;10529800;28;20051;-79
2022/02/07 00:52:08;;;;;;;28.70;12.82;;;;;;;;;;10530056;28;20044;-80
2022/02/07 00:57:09;;;;;;;22.52;11.57;;;;;;;;;;10529233;28;20449;-72
2022/02/07 01:02:09;;;;;;;23.50;11.40;;;;;;;;;;10528985;28;20479;-76
2022/02/07 01:07:10;;;;;;;24.17;10.37;;;;;;;;;;10529363;28;20066;-77
2022/02/07 01:59:11;;;;;;;20.00;11.45;;;;;;;;;;10538071;28;20028;-75
2022/02/07 02:04:11;;;;;;;21.63;12.52;;;;;;;;;;10535866;28;20044;-76
2022/02/07 02:09:13;;;;;;;32.38;14.15;;;;;;;;;;10536295;28;20047;-80
2022/02/07 02:14:39;;;;;;;31.13;13.25;;;;;;;;;;10536711;28;20020;-77
2022/02/07 02:20:24;;;;;;;26.38;13.25;;;;;;;;;;10536783;28;20020;-75
2022/02/07 02:36:22;;;;;;;25.20;13.32;;;;;;;;;;10536667;28;20028;-75
2022/02/07 02:46:44;;;;;;;25.17;12.82;;;;;;;;;;10536001;28;20032;-75
2022/02/07 02:51:45;;;;;;;30.92;13.13;;;;;;;;;;10534480;28;20451;-75
2022/02/07 02:56:45;;;;;;;26.80;11.40;;;;;;;;;;10535731;28;20044;-74
2022/02/07 03:01:45;;;;;;;21.23;10.82;;;;;;;;;;10534985;28;20035;-75
2022/02/07 03:06:48;;;;;;;31.25;11.80;;;;;;;;;;10533196;28;20028;-76
2022/02/07 03:11:49;;;;;;;26.58;12.45;;;;;;;;;;10533729;28;20042;-80
2022/02/07 03:16:50;;;;;;;23.75;12.35;;;;;;;;;;10533788;28;20023;-79
2022/02/07 03:21:50;;;;;;;24.55;12.30;;;;;;;;;;10533285;28;20487;-79
2022/02/07 03:26:51;;;;;;;21.83;12.02;;;;;;;;;;10533768;28;20024;-80
2022/02/07 03:31:52;;;;;;;25.42;13.30;;;;;;;;;;10533571;28;20028;-80
2022/02/07 03:36:52;;;;;;;30.58;12.82;;;;;;;;;;10532609;28;20028;-75
2022/02/07 03:41:52;;;;;;;25.23;12.77;;;;;;;;;;10533000;28;20044;-76
2022/02/07 03:46:53;;;;;;;23.13;12.63;;;;;;;;;;10534729;28;20030;-80
2022/02/07 03:51:53;;;;;;;23.08;13.63;;;;;;;;;;10532171;28;20046;-76
2022/02/07 03:56:53;;;;;;;29.75;13.80;;;;;;;;;;10533812;28;20499;-77
2022/02/07 04:01:54;;;;;;;26.05;11.73;;;;;;;;;;10568423;22;20052;-79
2022/02/07 04:06:54;;;;;;;23.75;11.13;;;;;;;;;;10532200;28;20040;-75
2022/02/07 04:12:03;;;;;;;21.85;11.70;;;;;;;;;;10513962;28;20020;-76
2022/02/07 04:17:03;;;;;;;25.30;13.32;;;;;;;;;;10530507;28;20030;-76
2022/02/07 04:22:06;;;;;;;23.83;12.13;;;;;;;;;;10530856;28;20028;-77
2022/02/07 04:27:06;;;;;;;19.35;10.73;;;;;;;;;;10531681;28;20016;-76
2022/02/07 04:32:07;;;;;;;21.48;11.55;;;;;;;;;;10529797;28;20051;-80
2022/02/07 04:37:07;;;;;;;17.92;10.25;;;;;;;;;;10537529;28;20073;-79
2022/02/07 04:42:10;;;;;;;18.37;11.47;;;;;;;;;;10519119;28;20025;-75
2022/02/07 04:47:22;;;;;;;18.92;11.07;;;;;;;;;;10511508;28;20024;-75
2022/02/07 04:52:41;;;;;;;26.60;13.63;;;;;;;;;;10495680;28;20029;-77
2022/02/07 04:57:51;;;;;;;26.65;12.13;;;;;;;;;;10514715;28;20483;-75
2022/02/07 05:03:09;;;;;;;23.02;11.93;;;;;;;;;;10496110;28;20117;-76
2022/02/07 05:13:49;;;;;;;21.27;11.85;;;;;;;;;;10530841;28;20035;-75
2022/02/07 05:18:53;;;;;;;21.05;11.32;;;;;;;;;;10488039;28;20131;-80
2022/02/07 05:23:54;;;;;;;20.85;11.15;;;;;;;;;;10506441;28;20081;-74
2022/02/07 05:28:58;;;;;;;19.95;11.05;;;;;;;;;;10529269;28;20085;-75
2022/02/07 05:33:59;;;;;;;24.30;13.52;;;;;;;;;;10530592;28;20078;-75
2022/02/07 05:39:01;;;;;;;25.02;11.15;;;;;;;;;;10531055;28;20085;-76
2022/02/07 05:44:02;;;;;;;28.67;12.18;;;;;;;;;;10529070;28;20028;-75
2022/02/07 05:49:02;;;;;;;25.10;12.15;;;;;;;;;;10528835;28;20020;-75
2022/02/07 05:54:02;;;;;;;26.63;13.10;;;;;;;;;;10529916;28;20036;-75
2022/02/07 05:59:03;;;;;;;24.90;12.03;;;;;;;;;;10527802;28;20165;-76
2022/02/07 06:04:03;;;;;;;25.90;13.13;;;;;;;;;;10532689;28;20673;-76
2022/02/07 06:09:03;;;;;;;28.17;12.80;;;;;;;;;;10538029;28;20091;-76
2022/02/07 06:14:04;;;;;;;25.42;11.23;;;;;;;;;;10537211;28;20360;-75
2022/02/07 06:19:04;;;;;;;25.43;11.87;;;;;;;;;;10537159;28;20449;-76
2022/02/07 06:24:05;;;;;;;24.33;13.13;;;;;;;;;;10535056;28;20293;-76
2022/02/07 06:29:07;;;;;;;35.13;16.05;;;;;;;;;;10533296;28;20020;-75
2022/02/07 06:34:08;;;;;;;28.95;12.25;;;;;;;;;;10533118;28;20434;-75
2022/02/07 06:39:08;;;;;;;28.17;11.70;;;;;;;;;;10533209;28;20028;-76
2022/02/07 06:44:09;;;;;;;27.57;11.40;;;;;;;;;;10533216;28;20016;-75
2022/02/07 06:49:10;;;;;;;20.73;10.15;;;;;;;;;;10535310;28;20016;-75
2022/02/07 06:54:10;;;;;;;24.70;12.30;;;;;;;;;;10537103;28;20039;-76
2022/02/07 06:59:15;;;;;;;23.20;12.53;;;;;;;;;;10532718;28;20118;-75
2022/02/07 07:04:15;;;;;;;21.80;10.18;;;;;;;;;;10533338;28;20286;-76
2022/02/07 07:09:16;;;;;;;16.70;9.63;;;;;;;;;;10533528;28;20032;-75
2022/02/07 07:15:07;;;;;;;16.25;10.43;;;;;;;;;;10531760;28;20456;-75
2022/02/07 07:19:37;;;;;;;20.83;10.23;;;;;;;;;;10526995;28;20028;-76
2022/02/07 07:24:37;;;;;;;27.45;10.88;;;;;;;;;;10535019;28;20544;-77
2022/02/07 07:29:41;;;;;;;25.50;11.63;;;;;;;;;;10533733;28;20009;-76
2022/02/07 07:34:41;;;;;;;25.27;11.98;;;;;;;;;;10531970;28;20514;-76
2022/02/07 07:39:42;;;;;;;22.93;10.97;;;;;;;;;;10532280;28;20028;-75
2022/02/07 07:44:44;;;;;;;24.83;11.65;;;;;;;;;;10531997;28;20091;-79
2022/02/07 07:49:51;;;;;;;21.77;10.93;;;;;;;;;;10531590;28;20016;-76
2022/02/07 07:55:24;;;;;;;17.95;10.02;;;;;;;;;;10531726;28;20107;-77
2022/02/07 08:06:14;;;;;;;16.58;9.57;;;;;;;;;;10480159;28;20032;-76
2022/02/07 08:11:15;;;;;;;21.15;10.38;;;;;;;;;;10531088;28;20035;-76
2022/02/07 08:16:16;;;;;;;21.75;9.90;;;;;;;;;;10531273;28;20020;-76
2022/02/07 08:21:16;;;;;;;19.43;8.73;;;;;;;;;;10529161;28;20448;-75
2022/02/07 08:26:16;;;;;;;22.43;9.80;;;;;;;;;;10528986;28;20080;-78
2022/02/07 08:31:20;;;;;;;20.73;9.68;;;;;;;;;;10530295;28;20020;-76
2022/02/07 08:36:21;;;;;;;17.77;8.63;;;;;;;;;;10529381;28;20023;-76
2022/02/07 08:41:21;;;;;;;15.70;7.68;;;;;;;;;;10529661;28;20020;-76
2022/02/07 08:46:22;;;;;;;20.95;8.65;;;;;;;;;;10530839;28;20028;-75
2022/02/07 08:51:22;;;;;;;24.10;8.37;;;;;;;;;;10528884;28;20043;-76
2022/02/07 08:56:37;;;;;;;19.92;8.90;;;;;;;;;;10528644;28;20020;-77
2022/02/07 09:01:50;;;;;;;20.92;9.40;;;;;;;;;;10528113;28;20044;-75
2022/02/07 09:12:19;;;;;;;25.15;10.32;;;;;;;;;;10520576;28;20063;-77
2022/02/07 09:17:20;;;;;;;19.20;10.57;;;;;;;;;;10528391;28;20055;-77
2022/02/07 09:22:20;;;;;;;18.67;9.10;;;;;;;;;;10527571;28;20024;-76
2022/02/07 09:27:20;;;;;;;23.27;9.93;;;;;;;;;;10527744;28;20111;-76
2022/02/07 09:32:21;;;;;;;18.13;9.00;;;;;;;;;;10528382;28;20184;-82
2022/02/07 09:37:21;;;;;;;29.23;9.32;;;;;;;;;;10530721;28;20039;-76
2022/02/07 09:42:22;;;;;;;17.63;8.95;;;;;;;;;;10536112;28;20032;-75
2022/02/07 09:47:24;;;;;;;21.23;10.32;;;;;;;;;;10536882;28;20114;-76
2022/02/07 09:52:24;;;;;;;21.70;8.73;;;;;;;;;;10535304;28;20569;-76
2022/02/07 09:57:24;;;;;;;17.33;9.10;;;;;;;;;;10543744;28;20038;-77
2022/02/07 10:02:51;;;;;;;18.02;9.30;;;;;;;;;;10535649;28;20070;-75
2022/02/07 10:39:56;;;;;;;23.20;10.73;;;;;;;;;;10498017;28;20052;-82
2022/02/07 10:45:01;;;;;;;23.17;9.48;;;;;;;;;;10533879;28;20056;-76
2022/02/07 10:50:09;;;;;;;27.27;11.15;;;;;;;;;;10532519;28;20054;-77
2022/02/07 10:55:23;;;;;;;20.77;9.15;;;;;;;;;;10533091;28;20024;-75
2022/02/07 11:00:29;;;;;;;17.45;8.45;;;;;;;;;;10532318;28;20218;-76
2022/02/07 11:05:36;;;;;;;17.13;8.43;;;;;;;;;;10532293;28;20168;-76
2022/02/07 11:11:03;;;;;;;26.15;7.85;;;;;;;;;;10533928;28;20016;-75
2022/02/07 11:16:07;;;;;;;21.10;9.52;;;;;;;;;;10533086;28;20023;-76
2022/02/07 11:21:16;;;;;;;19.02;8.00;;;;;;;;;;10532506;28;20044;-76
2022/02/07 11:26:29;;;;;;;23.65;11.30;;;;;;;;;;10531729;28;20020;-76
2022/02/07 11:31:32;;;;;;;27.85;10.52;;;;;;;;;;10533570;28;20027;-77
2022/02/07 11:36:35;;;;;;;31.40;11.40;;;;;;;;;;10537208;28;20020;-78
2022/02/07 11:41:53;;;;;;;21.50;7.65;;;;;;;;;;10532726;28;20321;-81
2022/02/07 11:47:12;;;;;;;12.10;6.28;;;;;;;;;;10531415;28;20077;-75
2022/02/07 11:52:31;;;;;;;8.50;3.65;;;;;;;;;;10530349;28;20119;-82
2022/02/07 11:57:37;;;;;;;15.95;3.75;;;;;;;;;;10530210;28;20024;-76
2022/02/07 12:02:38;;;;;;;5.13;2.83;;;;;;;;;;10513332;28;20142;-77
2022/02/07 12:07:41;;;;;;;4.82;2.40;;;;;;;;;;10530496;28;20411;-76
2022/02/07 12:12:43;;;;;;;5.93;2.25;;;;;;;;;;10529871;28;20028;-76
2022/02/07 12:17:47;;;;;;;6.75;2.15;;;;;;;;;;10529170;28;20031;-75
2022/02/07 12:22:48;;;;;;;5.30;2.17;;;;;;;;;;10530828;28;20027;-76
2022/02/07 12:27:49;;;;;;;5.07;2.20;;;;;;;;;;10529762;28;20028;-77
2022/02/07 12:32:50;;;;;;;3.50;2.03;;;;;;;;;;10530569;28;20023;-83
2022/02/07 12:37:51;;;;;;;7.50;2.55;;;;;;;;;;10528840;28;20268;-77
2022/02/07 12:42:52;;;;;;;2.63;1.73;;;;;;;;;;10511864;28;20546;-76
2022/02/07 12:47:56;;;;;;;7.22;4.25;;;;;;;;;;10528606;28;20066;-76
2022/02/07 12:52:56;;;;;;;6.00;2.20;;;;;;;;;;10528568;28;20115;-76
2022/02/07 12:57:58;;;;;;;6.75;2.53;;;;;;;;;;10528013;28;20031;-78
2022/02/07 13:03:01;;;;;;;2.83;1.70;;;;;;;;;;10505204;28;20139;-75
2022/02/07 13:08:02;;;;;;;10.40;3.80;;;;;;;;;;10470184;28;20044;-75
2022/02/07 13:13:20;;;;;;;6.50;2.83;;;;;;;;;;10506459;28;20023;-81
2022/02/07 13:18:21;;;;;;;5.53;2.63;;;;;;;;;;10537734;28;20020;-80
2022/02/07 13:23:21;;;;;;;9.30;3.63;;;;;;;;;;10536816;28;20032;-77
2022/02/07 13:28:24;;;;;;;7.07;2.70;;;;;;;;;;10506071;28;20457;-78
2022/02/07 13:33:24;;;;;;;9.63;4.45;;;;;;;;;;10494940;28;20038;-77
2022/02/07 13:38:25;;;;;;;12.30;4.60;;;;;;;;;;10494461;28;20872;-76
2022/02/07 13:43:27;;;;;;;16.27;6.47;;;;;;;;;;10493824;28;20028;-77
2022/02/07 13:48:27;;;;;;;10.13;3.78;;;;;;;;;;10494173;28;20177;-76
2022/02/07 13:53:28;;;;;;;8.00;4.18;;;;;;;;;;10494018;28;20396;-76
2022/02/07 13:58:32;;;;;;;10.82;4.80;;;;;;;;;;10493434;28;20036;-76
2022/02/07 14:03:48;;;;;;;10.57;4.85;;;;;;;;;;10492725;28;20113;-76
2022/02/07 14:08:50;;;;;;;9.85;3.50;;;;;;;;;;10494614;28;20499;-76
2022/02/07 14:13:52;;;;;;;4.63;1.90;;;;;;;;;;10518306;28;20039;-76
2022/02/07 14:18:53;;;;;;;6.05;3.55;;;;;;;;;;10535012;28;20106;-82
2022/02/07 14:23:54;;;;;;;10.60;2.85;;;;;;;;;;10492078;28;20108;-75
2022/02/07 14:28:55;;;;;;;2.55;2.05;;;;;;;;;;10492450;28;20022;-75
2022/02/07 14:33:55;;;;;;;6.53;2.67;;;;;;;;;;10492336;28;20024;-74
2022/02/07 14:38:56;;;;;;;5.60;2.67;;;;;;;;;;10497418;28;20107;-76
2022/02/07 14:44:01;;;;;;;3.83;2.80;;;;;;;;;;10492895;28;20468;-76
2022/02/07 14:49:01;;;;;;;3.53;2.88;;;;;;;;;;10505823;28;20078;-76
2022/02/07 14:54:02;;;;;;;8.95;3.28;;;;;;;;;;10506744;28;20543;-76
2022/02/07 14:59:02;;;;;;;8.90;3.63;;;;;;;;;;10529447;28;20407;-77
2022/02/07 15:04:02;;;;;;;4.60;2.88;;;;;;;;;;10531821;28;20309;-76
2022/02/07 15:09:03;;;;;;;5.60;3.30;;;;;;;;;;10518180;28;20072;-75
2022/02/07 15:14:03;;;;;;;5.97;4.10;;;;;;;;;;10512155;28;20728;-75
2022/02/07 15:19:03;;;;;;;8.00;3.20;;;;;;;;;;10521160;28;20047;-80
2022/02/07 15:24:04;;;;;;;12.03;3.50;;;;;;;;;;10490549;28;20540;-75
2022/02/07 15:29:06;;;;;;;6.30;2.90;;;;;;;;;;10514268;28;20024;-80
2022/02/07 15:34:06;;;;;;;5.97;3.42;;;;;;;;;;10531437;28;20510;-75
2022/02/07 15:39:09;;;;;;;4.47;3.25;;;;;;;;;;10530703;28;20031;-77
2022/02/07 15:44:12;;;;;;;5.35;3.13;;;;;;;;;;10531818;28;20024;-76
2022/02/07 15:49:12;;;;;;;11.02;5.20;;;;;;;;;;10531865;28;20035;-78
2022/02/07 15:54:12;;;;;;;13.27;4.85;;;;;;;;;;10523129;28;20502;-77
2022/02/07 15:59:13;;;;;;;10.63;4.45;;;;;;;;;;10488284;28;20457;-75
2022/02/07 16:04:13;;;;;;;11.35;5.97;;;;;;;;;;10487580;28;20032;-76
2022/02/07 16:09:13;;;;;;;11.18;5.53;;;;;;;;;;10501476;28;20509;-81
2022/02/07 16:14:22;;;;;;;13.05;6.07;;;;;;;;;;10528786;28;20092;-74
2022/02/07 16:19:23;;;;;;;14.73;6.20;;;;;;;;;;10488973;28;20047;-78
2022/02/07 16:24:24;;;;;;;16.43;7.50;;;;;;;;;;10507081;28;20072;-78
2022/02/07 16:29:24;;;;;;;5.30;3.30;;;;;;;;;;10529229;28;20020;-75
2022/02/07 16:34:25;;;;;;;4.30;1.60;;;;;;;;;;10528238;28;20024;-78
2022/02/07 16:39:25;;;;;;;1.98;0.88;;;;;;;;;;10529974;28;20649;-79
2022/02/07 16:44:25;;;;;;;6.13;1.10;;;;;;;;;;10528238;28;20039;-76
2022/02/07 16:49:27;;;;;;;3.97;1.55;;;;;;;;;;10528885;28;20016;-77
2022/02/07 16:54:28;;;;;;;3.47;2.50;;;;;;;;;;10528414;28;20474;-76
2022/02/07 16:59:29;;;;;;;1.75;1.05;;;;;;;;;;10528928;28;20483;-75
2022/02/07 17:04:31;;;;;;;1.10;1.00;;;;;;;;;;10511193;28;20032;-81
2022/02/07 17:09:33;;;;;;;1.77;1.10;;;;;;;;;;10529648;28;20020;-77
2022/02/07 17:14:33;;;;;;;2.55;1.20;;;;;;;;;;10518197;28;20128;-73
2022/02/07 17:19:35;;;;;;;0.90;0.85;;;;;;;;;;10476286;28;20071;-74
2022/02/07 17:24:35;;;;;;;1.90;1.55;;;;;;;;;;10529213;28;20027;-75
2022/02/07 17:29:37;;;;;;;1.77;1.00;;;;;;;;;;10528700;28;20403;-74
2022/02/07 17:34:37;;;;;;;1.42;1.30;;;;;;;;;;10527386;28;20442;-75
2022/02/07 17:39:37;;;;;;;1.70;1.60;;;;;;;;;;10528935;28;20081;-76
2022/02/07 17:44:39;;;;;;;1.63;1.40;;;;;;;;;;10529368;28;20016;-79
2022/02/07 17:49:40;;;;;;;2.70;2.50;;;;;;;;;;10535432;28;20348;-78
2022/02/07 17:54:40;;;;;;;1.30;1.20;;;;;;;;;;10529823;28;20111;-76
2022/02/07 17:59:40;;;;;;;3.85;3.00;;;;;;;;;;10533057;28;20040;-74
2022/02/07 18:04:41;;;;;;;2.73;2.47;;;;;;;;;;10516835;28;20036;-78
2022/02/07 18:09:43;;;;;;;3.53;2.95;;;;;;;;;;10496237;28;20025;-77
2022/02/07 18:14:43;;;;;;;3.45;3.00;;;;;;;;;;10517814;28;20052;-77
2022/02/07 18:19:44;;;;;;;4.57;4.10;;;;;;;;;;10498573;28;20059;-77
2022/02/07 18:24:46;;;;;;;6.63;4.88;;;;;;;;;;10502798;28;20031;-75
2022/02/07 18:29:52;;;;;;;3.75;3.45;;;;;;;;;;10494121;28;20054;-77
2022/02/07 18:34:53;;;;;;;3.05;2.47;;;;;;;;;;10502049;28;20448;-74
2022/02/07 18:39:53;;;;;;;5.55;3.55;;;;;;;;;;10503792;28;20028;-77
2022/02/07 18:44:58;;;;;;;4.57;2.53;;;;;;;;;;10502478;28;20086;-77
2022/02/07 18:49:58;;;;;;;8.73;5.78;;;;;;;;;;10517221;28;20103;-76
2022/02/07 18:54:59;;;;;;;6.93;5.33;;;;;;;;;;10538170;28;20118;-75
2022/02/07 19:00:11;;;;;;;7.33;5.60;;;;;;;;;;10532338;28;20083;-76
2022/02/07 19:10:21;;;;;;;7.97;6.75;;;;;;;;;;10518829;28;20033;-79
2022/02/07 19:15:22;;;;;;;6.95;6.28;;;;;;;;;;10492547;28;20137;-76
2022/02/07 19:20:24;;;;;;;8.53;6.73;;;;;;;;;;10492315;28;20425;-79
2022/02/07 19:25:28;;;;;;;10.50;8.90;;;;;;;;;;10493233;28;20290;-75
2022/02/07 19:30:30;;;;;;;10.65;6.40;;;;;;;;;;10493165;28;20112;-79
2022/02/07 19:35:39;;;;;;;13.10;8.68;;;;;;;;;;10492140;28;20100;-76
2022/02/07 19:40:49;;;;;;;14.43;7.20;;;;;;;;;;10490723;28;20025;-75
2022/02/07 19:45:50;;;;;;;10.85;7.60;;;;;;;;;;10509171;28;20016;-75
2022/02/07 19:50:55;;;;;;;15.65;10.88;;;;;;;;;;10532772;28;20028;-77
2022/02/07 19:55:55;;;;;;;11.05;7.65;;;;;;;;;;10541818;28;20024;-77
2022/02/07 20:00:58;;;;;;;10.20;7.78;;;;;;;;;;10528878;28;20056;-75
2022/02/07 20:05:59;;;;;;;15.65;7.95;;;;;;;;;;10530526;28;20055;-75
2022/02/07 20:10:59;;;;;;;13.88;8.93;;;;;;;;;;10532083;28;20012;-74
2022/02/07 20:16:00;;;;;;;13.47;8.80;;;;;;;;;;10531128;28;20020;-75
2022/02/07 20:21:00;;;;;;;13.75;8.18;;;;;;;;;;10530156;28;20712;-74
2022/02/07 20:26:00;;;;;;;13.47;8.83;;;;;;;;;;10529144;28;20414;-75
2022/02/07 20:31:02;;;;;;;15.98;9.05;;;;;;;;;;10529204;28;20504;-74
2022/02/07 20:36:05;;;;;;;17.75;10.13;;;;;;;;;;10529201;28;20024;-74
2022/02/07 20:41:06;;;;;;;12.80;8.57;;;;;;;;;;10529001;28;20107;-75
2022/02/07 20:46:07;;;;;;;18.83;12.05;;;;;;;;;;10492785;28;20020;-74
2022/02/07 20:51:08;;;;;;;15.45;10.18;;;;;;;;;;10487016;28;20024;-74
2022/02/07 20:56:08;;;;;;;15.83;8.63;;;;;;;;;;10487683;28;20402;-79
2022/02/07 21:01:11;;;;;;;13.52;8.23;;;;;;;;;;10487998;28;20317;-76
2022/02/07 21:06:13;;;;;;;20.13;14.40;;;;;;;;;;10486216;28;20043;-75
2022/02/07 21:11:13;;;;;;;15.82;9.30;;;;;;;;;;10487042;28;20108;-74
2022/02/07 21:16:14;;;;;;;22.35;11.00;;;;;;;;;;10486525;28;20020;-75
2022/02/07 21:21:14;;;;;;;21.35;11.30;;;;;;;;;;10486720;28;20028;-75
2022/02/07 21:26:14;;;;;;;18.83;10.82;;;;;;;;;;10485452;28;20503;-74
2022/02/07 21:31:15;;;;;;;18.47;11.60;;;;;;;;;;10486652;28;20033;-74
2022/02/07 21:36:23;;;;;;;15.23;10.67;;;;;;;;;;10494878;28;20265;-81
2022/02/07 21:41:27;;;;;;;16.15;10.70;;;;;;;;;;10496351;28;20266;-75
2022/02/07 21:46:34;;;;;;;16.20;10.70;;;;;;;;;;10494302;28;20044;-76
2022/02/07 21:51:34;;;;;;;19.83;9.50;;;;;;;;;;10494465;28;20019;-77
2022/02/07 21:56:37;;;;;;;18.13;10.68;;;;;;;;;;10493819;28;20506;-74
2022/02/07 22:01:41;;;;;;;15.45;10.25;;;;;;;;;;10494859;28;20044;-75
2022/02/07 22:06:46;;;;;;;20.92;10.68;;;;;;;;;;10504841;28;20033;-75
2022/02/07 22:11:51;;;;;;;22.10;10.68;;;;;;;;;;10494683;28;20071;-76
2022/02/07 22:16:55;;;;;;;19.67;10.77;;;;;;;;;;10492702;28;20036;-80
2022/02/07 22:21:55;;;;;;;15.50;9.77;;;;;;;;;;10494694;28;20399;-79
2022/02/07 22:26:55;;;;;;;16.02;10.00;;;;;;;;;;10524367;28;20016;-74
2022/02/07 22:32:00;;;;;;;18.83;11.63;;;;;;;;;;10534845;28;20368;-77
2022/02/07 22:37:01;;;;;;;19.65;11.38;;;;;;;;;;10533932;28;20540;-79
2022/02/07 22:42:02;;;;;;;17.25;9.88;;;;;;;;;;10534567;28;20069;-79
2022/02/07 22:47:02;;;;;;;19.05;10.00;;;;;;;;;;10534164;28;20012;-75
2022/02/07 22:52:03;;;;;;;13.88;8.65;;;;;;;;;;10533367;28;20023;-76
2022/02/07 22:57:04;;;;;;;18.98;10.15;;;;;;;;;;10533656;28;20023;-80
2022/02/07 23:02:06;;;;;;;15.10;9.93;;;;;;;;;;10534992;28;20036;-77
2022/02/07 23:07:14;;;;;;;18.45;11.95;;;;;;;;;;10533271;28;20059;-74
2022/02/07 23:12:42;;;;;;;18.77;11.75;;;;;;;;;;10533316;28;20020;-78
2022/02/07 23:38:36;;;;;;;12.98;8.15;;;;;;;;;;10532785;28;20038;-73
2022/02/07 23:43:43;;;;;;;17.83;7.50;;;;;;;;;;10531949;28;20020;-74
